createdAt,value
2022-07-29T00:00:02.428Z,9.681239
2022-07-29T00:01:02.411Z,9.681217
2022-07-29T00:02:02.398Z,9.681217
2022-07-29T00:03:02.469Z,9.681217
2022-07-29T00:04:02.449Z,9.681217
2022-07-29T00:05:02.370Z,9.680676
2022-07-29T00:06:02.370Z,9.680527
2022-07-29T00:07:02.360Z,9.680305
2022-07-29T00:08:02.362Z,9.680717
2022-07-29T00:09:02.365Z,9.681116
2022-07-29T00:10:02.352Z,9.681258
2022-07-29T00:11:02.340Z,9.681075
2022-07-29T00:12:02.327Z,9.680960
2022-07-29T00:13:02.329Z,9.680823
2022-07-29T00:14:02.332Z,9.681133
2022-07-29T00:15:02.329Z,9.680867
2022-07-29T00:16:04.503Z,9.680773
2022-07-29T00:17:02.294Z,9.680968
2022-07-29T00:18:02.293Z,9.680955
2022-07-29T00:19:02.616Z,9.681188
2022-07-29T00:20:02.284Z,9.681156
2022-07-29T00:21:02.287Z,9.680995
2022-07-29T00:22:02.276Z,9.680932
2022-07-29T00:23:02.277Z,9.680941
2022-07-29T00:24:02.249Z,9.680880
2022-07-29T00:25:02.247Z,9.680850
2022-07-29T00:26:02.225Z,9.680906
2022-07-29T00:27:02.223Z,9.680901
2022-07-29T00:28:02.223Z,9.680849
2022-07-29T00:29:32.562Z,9.680803
2022-07-29T00:30:03.203Z,9.680803
2022-07-29T00:31:02.255Z,9.680916
2022-07-29T00:32:02.243Z,9.681148
2022-07-29T00:33:02.172Z,9.681048
2022-07-29T00:34:02.192Z,9.681048
2022-07-29T00:35:02.177Z,9.681048
2022-07-29T00:36:02.160Z,9.681048
2022-07-29T00:37:02.150Z,9.681271
2022-07-29T00:38:02.222Z,9.681305
2022-07-29T00:39:02.145Z,9.681249
2022-07-29T00:40:02.164Z,9.681191
2022-07-29T00:41:02.122Z,9.681272
2022-07-29T00:42:02.119Z,9.681511
2022-07-29T00:43:02.103Z,9.681542
2022-07-29T00:44:02.095Z,9.681521
2022-07-29T00:45:02.093Z,9.681598
2022-07-29T00:46:02.104Z,9.681460
2022-07-29T00:47:02.161Z,9.681402
2022-07-29T00:48:02.086Z,9.681392
2022-07-29T00:49:02.122Z,9.681301
2022-07-29T00:50:02.046Z,9.681287
2022-07-29T00:51:02.047Z,9.681443
2022-07-29T00:52:02.040Z,9.681759
2022-07-29T00:53:02.041Z,9.681217
2022-07-29T00:54:02.023Z,9.681165
2022-07-29T00:55:08.043Z,9.681158
2022-07-29T00:56:03.010Z,9.681138
2022-07-29T00:57:01.997Z,9.681123
2022-07-29T00:58:01.996Z,9.681094
2022-07-29T00:59:02.011Z,9.681046
2022-07-29T01:00:02.011Z,9.681017
2022-07-29T01:01:02.022Z,9.681043
2022-07-29T01:02:01.996Z,9.681112
2022-07-29T01:03:01.958Z,9.681066
2022-07-29T01:04:01.949Z,9.681038
2022-07-29T01:05:01.959Z,9.681100
2022-07-29T01:06:01.932Z,9.681207
2022-07-29T01:07:01.922Z,9.681201
2022-07-29T01:08:01.914Z,9.681191
2022-07-29T01:09:01.921Z,9.681182
2022-07-29T01:10:01.923Z,9.681207
2022-07-29T01:11:01.889Z,9.681046
2022-07-29T01:12:01.898Z,9.681077
2022-07-29T01:13:01.887Z,9.681147
2022-07-29T01:14:01.874Z,9.681228
2022-07-29T01:15:01.903Z,9.681126
2022-07-29T01:16:01.940Z,9.681170
2022-07-29T01:17:01.852Z,9.681122
2022-07-29T01:18:01.841Z,9.680921
2022-07-29T01:19:01.844Z,9.680669
2022-07-29T01:20:01.843Z,9.680856
2022-07-29T01:21:01.819Z,9.681157
2022-07-29T01:22:01.864Z,9.681157
2022-07-29T01:23:01.814Z,9.680796
2022-07-29T01:24:01.805Z,9.680969
2022-07-29T01:25:01.798Z,9.681040
2022-07-29T01:26:01.791Z,9.681034
2022-07-29T01:27:01.780Z,9.680999
2022-07-29T01:28:01.800Z,9.681130
2022-07-29T01:29:06.116Z,9.681299
2022-07-29T01:30:02.769Z,9.681138
2022-07-29T01:31:01.791Z,9.681179
2022-07-29T01:32:01.859Z,9.681224
2022-07-29T01:33:01.757Z,9.681394
2022-07-29T01:34:01.736Z,9.681136
2022-07-29T01:35:01.743Z,9.680984
2022-07-29T01:36:01.746Z,9.680947
2022-07-29T01:37:01.706Z,9.680770
2022-07-29T01:38:01.709Z,9.681005
2022-07-29T01:39:01.695Z,9.681023
2022-07-29T01:40:01.688Z,9.680929
2022-07-29T01:41:01.694Z,9.680854
2022-07-29T01:42:01.713Z,9.681002
2022-07-29T01:43:01.673Z,9.681016
2022-07-29T01:44:01.663Z,9.680981
2022-07-29T01:45:01.650Z,9.680874
2022-07-29T01:46:01.656Z,9.681080
2022-07-29T01:47:01.751Z,9.681130
2022-07-29T01:48:01.652Z,9.681095
2022-07-29T01:49:01.711Z,9.680992
2022-07-29T01:50:01.640Z,9.681006
2022-07-29T01:51:01.611Z,9.681056
2022-07-29T01:52:01.615Z,9.681064
2022-07-29T01:53:01.606Z,9.681059
2022-07-29T01:54:01.593Z,9.681000
2022-07-29T01:55:01.592Z,9.681190
2022-07-29T01:56:01.603Z,9.681173
2022-07-29T01:57:01.570Z,9.681261
2022-07-29T01:58:01.576Z,9.681193
2022-07-29T01:59:01.560Z,9.681011
2022-07-29T02:00:01.565Z,9.680839
2022-07-29T02:01:01.569Z,9.681088
2022-07-29T02:02:01.583Z,9.681182
2022-07-29T02:03:01.566Z,9.681149
2022-07-29T02:04:01.529Z,9.681232
2022-07-29T02:05:01.560Z,9.681164
2022-07-29T02:06:01.525Z,9.680881
2022-07-29T02:07:01.511Z,9.680839
2022-07-29T02:08:01.502Z,9.681029
2022-07-29T02:09:01.514Z,9.681230
2022-07-29T02:10:01.480Z,9.681215
2022-07-29T02:11:01.484Z,9.681142
2022-07-29T02:12:01.470Z,9.681171
2022-07-29T02:13:01.455Z,9.681092
2022-07-29T02:14:01.456Z,9.681179
2022-07-29T02:15:01.480Z,9.681068
2022-07-29T02:16:01.475Z,9.680989
2022-07-29T02:17:01.432Z,9.681115
2022-07-29T02:18:01.425Z,9.681065
2022-07-29T02:19:01.424Z,9.681092
2022-07-29T02:20:01.417Z,9.681149
2022-07-29T02:21:01.424Z,9.681151
2022-07-29T02:22:01.401Z,9.681126
2022-07-29T02:23:01.389Z,9.680926
2022-07-29T02:24:01.384Z,9.680944
2022-07-29T02:25:01.377Z,9.680962
2022-07-29T02:26:01.392Z,9.680928
2022-07-29T02:27:01.356Z,9.680711
2022-07-29T02:28:01.352Z,9.680878
2022-07-29T02:29:01.378Z,9.680931
2022-07-29T02:30:01.332Z,9.680831
2022-07-29T02:31:01.385Z,9.680881
2022-07-29T02:32:01.321Z,9.680893
2022-07-29T02:33:01.345Z,9.681029
2022-07-29T02:34:01.324Z,9.681282
2022-07-29T02:35:01.301Z,9.681417
2022-07-29T02:36:01.303Z,9.681447
2022-07-29T02:37:01.289Z,9.681061
2022-07-29T02:38:01.298Z,9.681142
2022-07-29T02:39:01.294Z,9.681310
2022-07-29T02:40:01.270Z,9.681209
2022-07-29T02:41:01.254Z,9.681197
2022-07-29T02:42:01.254Z,9.681180
2022-07-29T02:43:01.245Z,9.681158
2022-07-29T02:44:01.255Z,9.681080
2022-07-29T02:45:01.231Z,9.680997
2022-07-29T02:46:01.256Z,9.681007
2022-07-29T02:47:01.267Z,9.681129
2022-07-29T02:48:01.209Z,9.681077
2022-07-29T02:49:01.303Z,9.681156
2022-07-29T02:50:01.193Z,9.681068
2022-07-29T02:51:01.187Z,9.681055
2022-07-29T02:52:01.188Z,9.681052
2022-07-29T02:53:01.173Z,9.681019
2022-07-29T02:54:01.187Z,9.680971
2022-07-29T02:55:01.180Z,9.680969
2022-07-29T02:56:01.151Z,9.680954
2022-07-29T02:57:01.148Z,9.680961
2022-07-29T02:58:01.158Z,9.680994
2022-07-29T02:59:01.136Z,9.681088
2022-07-29T03:00:01.145Z,9.681122
2022-07-29T03:01:01.117Z,9.681040
2022-07-29T03:02:01.189Z,9.681090
2022-07-29T03:03:01.101Z,9.681092
2022-07-29T03:04:01.095Z,9.681114
2022-07-29T03:05:01.230Z,9.681099
2022-07-29T03:06:01.090Z,9.680912
2022-07-29T03:07:01.072Z,9.680975
2022-07-29T03:08:01.069Z,9.681072
2022-07-29T03:09:01.066Z,9.681104
2022-07-29T03:10:01.038Z,9.681098
2022-07-29T03:11:01.049Z,9.680969
2022-07-29T03:12:01.034Z,9.681061
2022-07-29T03:13:01.022Z,9.680966
2022-07-29T03:14:01.030Z,9.680954
2022-07-29T03:15:01.014Z,9.681110
2022-07-29T03:16:01.070Z,9.681005
2022-07-29T03:17:00.995Z,9.681044
2022-07-29T03:18:01.007Z,9.680942
2022-07-29T03:19:00.986Z,9.681103
2022-07-29T03:20:00.985Z,9.681034
2022-07-29T03:21:00.979Z,9.680949
2022-07-29T03:22:00.983Z,9.680951
2022-07-29T03:23:00.977Z,9.681181
2022-07-29T03:24:00.960Z,9.681021
2022-07-29T03:25:00.941Z,9.680923
2022-07-29T03:26:00.961Z,9.680935
2022-07-29T03:27:00.950Z,9.680593
2022-07-29T03:28:00.948Z,9.680639
2022-07-29T03:29:00.906Z,9.681171
2022-07-29T03:30:00.899Z,9.681276
2022-07-29T03:31:01.012Z,9.681450
2022-07-29T03:32:00.887Z,9.680958
2022-07-29T03:33:00.876Z,9.681506
2022-07-29T03:34:00.918Z,9.681387
2022-07-29T03:35:00.856Z,9.681115
2022-07-29T03:36:00.855Z,9.681071
2022-07-29T03:37:00.846Z,9.681201
2022-07-29T03:38:00.843Z,9.681227
2022-07-29T03:39:00.823Z,9.681213
2022-07-29T03:40:00.855Z,9.681060
2022-07-29T03:41:00.823Z,9.681144
2022-07-29T03:42:00.817Z,9.681027
2022-07-29T03:43:00.815Z,9.681008
2022-07-29T03:44:00.797Z,9.681123
2022-07-29T03:45:00.788Z,9.681149
2022-07-29T03:46:00.833Z,9.681041
2022-07-29T03:47:00.769Z,9.680846
2022-07-29T03:48:01.269Z,9.680835
2022-07-29T03:49:00.828Z,9.680961
2022-07-29T03:50:00.759Z,9.680876
2022-07-29T03:51:00.738Z,9.680511
2022-07-29T03:52:00.754Z,9.681058
2022-07-29T03:53:00.732Z,9.680974
2022-07-29T03:54:02.158Z,9.680986
2022-07-29T03:55:00.712Z,9.680956
2022-07-29T03:56:00.712Z,9.681075
2022-07-29T03:57:00.705Z,9.680953
2022-07-29T03:58:00.724Z,9.681083
2022-07-29T03:59:00.690Z,9.681061
2022-07-29T04:00:00.690Z,9.681086
2022-07-29T04:01:00.692Z,9.681034
2022-07-29T04:02:00.702Z,9.681103
2022-07-29T04:03:00.693Z,9.681027
2022-07-29T04:04:00.722Z,9.681166
2022-07-29T04:05:00.644Z,9.681076
2022-07-29T04:06:00.665Z,9.681035
2022-07-29T04:07:00.635Z,9.680953
2022-07-29T04:08:00.628Z,9.681012
2022-07-29T04:09:00.618Z,9.681165
2022-07-29T04:10:00.605Z,9.681086
2022-07-29T04:11:00.601Z,9.681159
2022-07-29T04:12:03.050Z,9.681219
2022-07-29T04:13:00.598Z,9.681047
2022-07-29T04:14:00.576Z,9.681027
2022-07-29T04:15:00.584Z,9.681092
2022-07-29T04:16:00.600Z,9.681020
2022-07-29T04:17:00.558Z,9.681028
2022-07-29T04:18:00.712Z,9.681128
2022-07-29T04:19:00.544Z,9.681134
2022-07-29T04:20:00.551Z,9.681118
2022-07-29T04:21:00.522Z,9.681108
2022-07-29T04:22:00.532Z,9.681115
2022-07-29T04:23:00.510Z,9.681147
2022-07-29T04:24:00.520Z,9.681070
2022-07-29T04:25:04.063Z,9.681073
2022-07-29T04:26:00.491Z,9.681114
2022-07-29T04:27:00.498Z,9.681144
2022-07-29T04:28:00.465Z,9.681143
2022-07-29T04:29:00.465Z,9.681172
2022-07-29T04:30:00.462Z,9.681149
2022-07-29T04:31:00.487Z,9.681105
2022-07-29T04:32:00.459Z,9.681087
2022-07-29T04:33:00.428Z,9.681051
2022-07-29T04:34:00.459Z,9.681043
2022-07-29T04:35:00.416Z,9.681040
2022-07-29T04:36:00.412Z,9.681078
2022-07-29T04:37:00.413Z,9.681123
2022-07-29T04:38:00.388Z,9.681090
2022-07-29T04:39:00.389Z,9.681090
2022-07-29T04:40:00.411Z,9.681103
2022-07-29T04:41:00.379Z,9.681099
2022-07-29T04:42:00.371Z,9.681104
2022-07-29T04:43:00.366Z,9.681145
2022-07-29T04:44:00.361Z,9.681215
2022-07-29T04:45:01.287Z,9.681274
2022-07-29T04:46:00.399Z,9.681212
2022-07-29T04:47:00.339Z,9.681095
2022-07-29T04:48:00.327Z,9.681073
2022-07-29T04:49:00.391Z,9.680893
2022-07-29T04:50:00.315Z,9.680927
2022-07-29T04:51:00.309Z,9.681058
2022-07-29T04:52:00.377Z,9.681067
2022-07-29T04:53:00.299Z,9.681146
2022-07-29T04:54:00.286Z,9.681051
2022-07-29T04:55:00.320Z,9.681107
2022-07-29T04:56:00.269Z,9.681041
2022-07-29T04:57:00.270Z,9.681047
2022-07-29T04:58:00.270Z,9.680990
2022-07-29T04:59:00.242Z,9.680940
2022-07-29T05:00:00.249Z,9.681025
2022-07-29T05:01:00.236Z,9.681031
2022-07-29T05:02:00.272Z,9.681114
2022-07-29T05:03:00.355Z,9.681013
2022-07-29T05:04:00.835Z,9.680825
2022-07-29T05:05:00.208Z,9.680960
2022-07-29T05:06:00.201Z,9.681156
2022-07-29T05:07:00.186Z,9.681057
2022-07-29T05:08:00.195Z,9.681051
2022-07-29T05:09:00.165Z,9.681005
2022-07-29T05:10:00.190Z,9.681039
2022-07-29T05:11:11.524Z,9.680912
2022-07-29T05:12:01.151Z,9.681139
2022-07-29T05:13:00.140Z,9.681058
2022-07-29T05:14:00.148Z,9.681091
2022-07-29T05:15:00.144Z,9.681101
2022-07-29T05:16:00.215Z,9.681083
2022-07-29T05:17:00.107Z,9.681107
2022-07-29T05:18:00.108Z,9.680985
2022-07-29T05:19:00.103Z,9.681017
2022-07-29T05:20:00.108Z,9.680970
2022-07-29T05:21:00.101Z,9.680971
2022-07-29T05:22:00.082Z,9.681067
2022-07-29T05:23:00.079Z,9.680857
2022-07-29T05:24:00.070Z,9.680977
2022-07-29T05:25:00.873Z,9.680972
2022-07-29T05:26:00.061Z,9.680927
2022-07-29T05:27:00.081Z,9.680914
2022-07-29T05:28:00.033Z,9.680983
2022-07-29T05:29:00.026Z,9.680948
2022-07-29T05:30:00.020Z,9.680975
2022-07-29T05:31:00.038Z,9.680846
2022-07-29T05:31:59.996Z,9.681017
2022-07-29T05:33:00.019Z,9.681010
2022-07-29T05:33:59.984Z,9.681054
2022-07-29T05:34:59.987Z,9.681054
2022-07-29T05:36:00.942Z,9.680930
2022-07-29T05:36:59.967Z,9.680858
2022-07-29T05:37:59.959Z,9.680385
2022-07-29T05:38:59.982Z,9.680950
2022-07-29T05:39:59.935Z,9.681097
2022-07-29T05:40:59.926Z,9.681012
2022-07-29T05:41:59.956Z,9.680862
2022-07-29T05:42:59.915Z,9.680868
2022-07-29T05:43:59.897Z,9.680564
2022-07-29T05:44:59.902Z,9.680932
2022-07-29T05:45:59.923Z,9.680796
2022-07-29T05:46:59.878Z,9.680793
2022-07-29T05:47:59.889Z,9.680824
2022-07-29T05:48:59.918Z,9.680801
2022-07-29T05:49:59.857Z,9.680834
2022-07-29T05:50:59.847Z,9.680793
2022-07-29T05:51:59.843Z,9.680996
2022-07-29T05:52:59.845Z,9.680751
2022-07-29T05:54:00.856Z,9.680936
2022-07-29T05:54:59.819Z,9.680404
2022-07-29T05:55:59.811Z,9.680554
2022-07-29T05:56:59.800Z,9.680554
2022-07-29T05:57:59.800Z,9.680554
2022-07-29T05:58:59.803Z,9.680554
2022-07-29T05:59:59.807Z,9.680554
2022-07-29T06:00:59.864Z,9.680554
2022-07-29T06:01:59.810Z,9.680554
2022-07-29T06:02:59.758Z,9.680554
2022-07-29T06:03:59.795Z,9.680554
2022-07-29T06:04:59.775Z,9.680554
2022-07-29T06:05:59.760Z,9.680554
2022-07-29T06:06:59.728Z,9.680554
2022-07-29T06:07:59.720Z,9.680209
2022-07-29T06:08:59.710Z,9.680200
2022-07-29T06:10:00.716Z,9.680496
2022-07-29T06:10:59.699Z,9.680319
2022-07-29T06:11:59.709Z,9.679659
2022-07-29T06:12:59.689Z,9.678525
2022-07-29T06:13:59.676Z,9.676530
2022-07-29T06:14:59.669Z,9.675128
2022-07-29T06:15:59.745Z,9.674635
2022-07-29T06:16:59.658Z,9.674100
2022-07-29T06:18:01.310Z,9.675841
2022-07-29T06:18:59.656Z,9.675774
2022-07-29T06:19:59.650Z,9.676620
2022-07-29T06:20:59.627Z,9.677437
2022-07-29T06:21:59.612Z,9.677267
2022-07-29T06:22:59.620Z,9.678229
2022-07-29T06:23:59.604Z,9.677582
2022-07-29T06:24:59.597Z,9.677336
2022-07-29T06:25:59.606Z,9.677182
2022-07-29T06:26:59.593Z,9.677832
2022-07-29T06:27:59.598Z,9.677891
2022-07-29T06:28:59.561Z,9.677706
2022-07-29T06:29:59.558Z,9.677695
2022-07-29T06:30:59.636Z,9.679439
2022-07-29T06:31:59.548Z,9.680538
2022-07-29T06:32:59.532Z,9.681007
2022-07-29T06:33:59.535Z,9.680840
2022-07-29T06:35:24.502Z,9.680701
2022-07-29T06:36:00.520Z,9.680806
2022-07-29T06:36:59.505Z,9.680758
2022-07-29T06:37:59.987Z,9.680815
2022-07-29T06:38:59.499Z,9.680805
2022-07-29T06:39:59.732Z,9.680864
2022-07-29T06:40:59.498Z,9.680903
2022-07-29T06:41:59.499Z,9.680901
2022-07-29T06:42:59.474Z,9.680907
2022-07-29T06:43:59.459Z,9.680927
2022-07-29T06:44:59.441Z,9.680883
2022-07-29T06:45:59.475Z,9.680817
2022-07-29T06:46:59.443Z,9.680708
2022-07-29T06:47:59.445Z,9.680876
2022-07-29T06:48:59.450Z,9.681026
2022-07-29T06:49:59.419Z,9.681085
2022-07-29T06:50:59.398Z,9.681229
2022-07-29T06:51:59.405Z,9.681106
2022-07-29T06:52:59.409Z,9.681068
2022-07-29T06:54:02.862Z,9.681107
2022-07-29T06:54:59.379Z,9.681153
2022-07-29T06:55:59.359Z,9.681024
2022-07-29T06:56:59.353Z,9.681100
2022-07-29T06:57:59.349Z,9.680897
2022-07-29T06:58:59.357Z,9.680840
2022-07-29T06:59:59.338Z,9.680642
2022-07-29T07:00:59.399Z,9.680680
2022-07-29T07:01:59.367Z,9.680457
2022-07-29T07:02:59.304Z,9.680944
2022-07-29T07:03:59.331Z,9.681296
2022-07-29T07:04:59.294Z,9.681140
2022-07-29T07:05:59.288Z,9.681165
2022-07-29T07:06:59.280Z,9.681249
2022-07-29T07:07:59.271Z,9.681023
2022-07-29T07:08:59.258Z,9.680984
2022-07-29T07:09:59.283Z,9.681033
2022-07-29T07:10:59.257Z,9.681144
2022-07-29T07:11:59.246Z,9.681028
2022-07-29T07:12:59.241Z,9.681072
2022-07-29T07:14:03.019Z,9.680921
2022-07-29T07:14:59.225Z,9.681054
2022-07-29T07:15:59.233Z,9.681001
2022-07-29T07:16:59.262Z,9.680935
2022-07-29T07:17:59.201Z,9.681241
2022-07-29T07:18:59.212Z,9.681207
2022-07-29T07:19:59.207Z,9.681187
2022-07-29T07:20:59.203Z,9.681156
2022-07-29T07:21:59.183Z,9.681237
2022-07-29T07:22:59.169Z,9.681222
2022-07-29T07:23:59.160Z,9.681250
2022-07-29T07:24:59.167Z,9.681274
2022-07-29T07:25:59.138Z,9.681245
2022-07-29T07:26:59.143Z,9.681221
2022-07-29T07:27:59.148Z,9.681264
2022-07-29T07:28:59.120Z,9.681240
2022-07-29T07:29:59.115Z,9.681276
2022-07-29T07:30:59.142Z,9.681308
2022-07-29T07:32:01.182Z,9.681358
2022-07-29T07:32:59.094Z,9.681292
2022-07-29T07:33:59.117Z,9.681280
2022-07-29T07:34:59.079Z,9.681322
2022-07-29T07:35:59.070Z,9.681335
2022-07-29T07:36:59.061Z,9.681317
2022-07-29T07:37:59.069Z,9.681286
2022-07-29T07:38:59.048Z,9.681340
2022-07-29T07:39:59.037Z,9.681338
2022-07-29T07:40:59.030Z,9.681352
2022-07-29T07:41:59.051Z,9.681326
2022-07-29T07:42:59.034Z,9.681355
2022-07-29T07:43:59.014Z,9.681307
2022-07-29T07:45:13.009Z,9.681275
2022-07-29T07:46:00.070Z,9.681383
2022-07-29T07:46:58.988Z,9.681310
2022-07-29T07:47:58.978Z,9.681602
2022-07-29T07:48:59.039Z,9.681264
2022-07-29T07:49:58.965Z,9.681034
2022-07-29T07:50:58.954Z,9.681252
2022-07-29T07:51:58.944Z,9.681371
2022-07-29T07:52:59.102Z,9.681505
2022-07-29T07:53:58.935Z,9.681082
2022-07-29T07:54:58.934Z,9.680942
2022-07-29T07:56:14.171Z,9.681009
2022-07-29T07:56:59.929Z,9.681193
2022-07-29T07:57:58.920Z,9.681127
2022-07-29T07:58:58.886Z,9.681178
2022-07-29T07:59:58.884Z,9.681090
2022-07-29T08:00:58.972Z,9.680942
2022-07-29T08:01:59.073Z,9.681116
2022-07-29T08:02:58.881Z,9.681144
2022-07-29T08:03:58.867Z,9.681375
2022-07-29T08:04:58.867Z,9.681078
2022-07-29T08:05:58.850Z,9.680981
2022-07-29T08:06:58.838Z,9.680861
2022-07-29T08:07:58.821Z,9.680907
2022-07-29T08:09:19.525Z,9.681088
2022-07-29T08:09:59.828Z,9.681059
2022-07-29T08:10:58.800Z,9.681040
2022-07-29T08:11:58.832Z,9.681153
2022-07-29T08:12:58.802Z,9.681046
2022-07-29T08:13:58.799Z,9.681078
2022-07-29T08:14:58.768Z,9.681190
2022-07-29T08:15:59.170Z,9.681133
2022-07-29T08:16:58.818Z,9.681145
2022-07-29T08:17:58.780Z,9.681126
2022-07-29T08:18:58.734Z,9.681143
2022-07-29T08:19:58.738Z,9.681201
2022-07-29T08:20:58.746Z,9.681137
2022-07-29T08:21:58.717Z,9.681205
2022-07-29T08:22:58.713Z,9.681033
2022-07-29T08:24:02.905Z,9.680966
2022-07-29T08:24:58.700Z,9.681014
2022-07-29T08:25:58.692Z,9.681140
2022-07-29T08:26:58.679Z,9.681040
2022-07-29T08:27:58.688Z,9.680856
2022-07-29T08:28:58.662Z,9.681116
2022-07-29T08:29:58.694Z,9.681037
2022-07-29T08:30:58.653Z,9.681131
2022-07-29T08:31:58.693Z,9.680967
2022-07-29T08:32:58.967Z,9.681003
2022-07-29T08:33:58.634Z,9.680857
2022-07-29T08:34:58.620Z,9.681019
2022-07-29T08:35:58.622Z,9.680961
2022-07-29T08:36:58.620Z,9.681018
2022-07-29T08:37:58.613Z,9.681017
2022-07-29T08:38:58.622Z,9.681062
2022-07-29T08:39:58.593Z,9.681137
2022-07-29T08:40:58.588Z,9.681094
2022-07-29T08:41:58.660Z,9.681027
2022-07-29T08:42:58.566Z,9.681048
2022-07-29T08:43:58.583Z,9.680923
2022-07-29T08:44:58.569Z,9.680919
2022-07-29T08:45:58.570Z,9.680821
2022-07-29T08:46:58.540Z,9.680758
2022-07-29T08:47:58.533Z,9.680984
2022-07-29T08:48:58.578Z,9.680935
2022-07-29T08:49:58.516Z,9.681051
2022-07-29T08:50:58.529Z,9.680854
2022-07-29T08:51:58.895Z,9.680730
2022-07-29T08:53:00.057Z,9.680541
2022-07-29T08:53:58.491Z,9.680933
2022-07-29T08:54:58.493Z,9.680926
2022-07-29T08:55:58.481Z,9.681079
2022-07-29T08:56:58.462Z,9.681001
2022-07-29T08:57:58.478Z,9.680898
2022-07-29T08:58:58.447Z,9.680657
2022-07-29T08:59:58.468Z,9.680900
2022-07-29T09:00:58.480Z,9.680917
2022-07-29T09:01:58.823Z,9.680983
2022-07-29T09:02:58.430Z,9.681045
2022-07-29T09:03:58.449Z,9.681105
2022-07-29T09:04:58.430Z,9.681040
2022-07-29T09:05:58.418Z,9.681021
2022-07-29T09:06:58.411Z,9.681087
2022-07-29T09:07:58.407Z,9.681059
2022-07-29T09:08:58.391Z,9.680908
2022-07-29T09:09:58.390Z,9.680919
2022-07-29T09:10:58.372Z,9.681013
2022-07-29T09:11:58.366Z,9.680942
2022-07-29T09:12:58.370Z,9.681058
2022-07-29T09:13:58.358Z,9.681123
2022-07-29T09:14:58.358Z,9.681145
2022-07-29T09:15:58.415Z,9.681149
2022-07-29T09:16:58.420Z,9.681142
2022-07-29T09:17:58.347Z,9.680985
2022-07-29T09:18:58.318Z,9.681067
2022-07-29T09:19:58.354Z,9.681057
2022-07-29T09:20:58.320Z,9.681010
2022-07-29T09:21:58.299Z,9.681312
2022-07-29T09:22:58.306Z,9.681443
2022-07-29T09:23:58.288Z,9.681473
2022-07-29T09:24:58.304Z,9.681768
2022-07-29T09:25:58.276Z,9.681453
2022-07-29T09:26:58.263Z,9.681554
2022-07-29T09:27:58.257Z,9.680947
2022-07-29T09:28:58.246Z,9.680907
2022-07-29T09:29:58.262Z,9.681263
2022-07-29T09:30:58.241Z,9.681812
2022-07-29T09:31:58.300Z,9.681855
2022-07-29T09:32:58.224Z,9.681524
2022-07-29T09:33:58.220Z,9.681363
2022-07-29T09:34:58.512Z,9.680924
2022-07-29T09:35:58.198Z,9.680606
2022-07-29T09:36:58.670Z,9.680089
2022-07-29T09:37:58.211Z,9.679492
2022-07-29T09:38:58.175Z,9.679624
2022-07-29T09:39:58.163Z,9.680488
2022-07-29T09:40:58.185Z,9.681387
2022-07-29T09:41:59.160Z,9.681757
2022-07-29T09:42:58.156Z,9.681806
2022-07-29T09:43:58.150Z,9.681528
2022-07-29T09:44:58.152Z,9.681625
2022-07-29T09:45:58.148Z,9.681684
2022-07-29T09:46:58.686Z,9.681227
2022-07-29T09:47:58.117Z,9.681639
2022-07-29T09:48:58.135Z,9.681419
2022-07-29T09:49:58.095Z,9.681278
2022-07-29T09:50:58.085Z,9.681284
2022-07-29T09:51:58.083Z,9.681614
2022-07-29T09:52:58.094Z,9.681551
2022-07-29T09:53:58.069Z,9.680997
2022-07-29T09:54:58.061Z,9.680945
2022-07-29T09:55:58.047Z,9.680988
2022-07-29T09:56:58.289Z,9.681039
2022-07-29T09:57:58.067Z,9.681034
2022-07-29T09:58:58.042Z,9.681131
2022-07-29T09:59:58.025Z,9.680902
2022-07-29T10:00:58.067Z,9.681118
2022-07-29T10:01:58.382Z,9.680992
2022-07-29T10:02:58.093Z,9.681067
2022-07-29T10:03:57.995Z,9.680729
2022-07-29T10:04:58.011Z,9.681526
2022-07-29T10:05:57.992Z,9.681149
2022-07-29T10:07:03.879Z,9.680756
2022-07-29T10:07:58.994Z,9.681068
2022-07-29T10:08:57.958Z,9.680795
2022-07-29T10:09:57.971Z,9.680580
2022-07-29T10:10:57.948Z,9.680877
2022-07-29T10:11:58.152Z,9.680916
2022-07-29T10:12:59.737Z,9.680993
2022-07-29T10:13:57.954Z,9.681007
2022-07-29T10:14:57.918Z,9.680898
2022-07-29T10:15:57.948Z,9.680948
2022-07-29T10:16:57.905Z,9.680993
2022-07-29T10:17:57.900Z,9.680948
2022-07-29T10:18:57.917Z,9.681065
2022-07-29T10:19:57.899Z,9.680958
2022-07-29T10:20:57.886Z,9.680954
2022-07-29T10:21:58.213Z,9.680915
2022-07-29T10:22:57.860Z,9.680943
2022-07-29T10:23:59.569Z,9.680915
2022-07-29T10:24:57.889Z,9.681001
2022-07-29T10:25:57.851Z,9.680933
2022-07-29T10:26:57.842Z,9.681036
2022-07-29T10:27:57.833Z,9.681072
2022-07-29T10:28:57.855Z,9.681026
2022-07-29T10:29:57.826Z,9.681006
2022-07-29T10:30:57.861Z,9.681206
2022-07-29T10:31:58.322Z,9.681104
2022-07-29T10:32:57.796Z,9.681110
2022-07-29T10:33:57.809Z,9.681163
2022-07-29T10:34:57.779Z,9.681283
2022-07-29T10:35:57.784Z,9.681126
2022-07-29T10:36:57.822Z,9.681049
2022-07-29T10:37:57.830Z,9.681330
2022-07-29T10:38:57.762Z,9.681170
2022-07-29T10:39:57.743Z,9.681180
2022-07-29T10:40:57.749Z,9.681224
2022-07-29T10:41:58.093Z,9.681176
2022-07-29T10:42:57.731Z,9.681169
2022-07-29T10:43:57.759Z,9.681129
2022-07-29T10:44:57.723Z,9.681181
2022-07-29T10:45:57.771Z,9.681081
2022-07-29T10:46:57.733Z,9.681057
2022-07-29T10:47:57.698Z,9.681119
2022-07-29T10:48:57.785Z,9.680931
2022-07-29T10:49:57.685Z,9.680920
2022-07-29T10:50:57.674Z,9.680920
2022-07-29T10:51:58.236Z,9.680964
2022-07-29T10:52:57.673Z,9.681075
2022-07-29T10:53:57.659Z,9.681159
2022-07-29T10:54:57.677Z,9.681156
2022-07-29T10:55:57.648Z,9.681149
2022-07-29T10:56:57.656Z,9.681133
2022-07-29T10:57:57.632Z,9.681120
2022-07-29T10:58:57.632Z,9.681095
2022-07-29T10:59:57.649Z,9.680948
2022-07-29T11:00:57.745Z,9.680943
2022-07-29T11:02:10.848Z,9.681044
2022-07-29T11:02:57.698Z,9.681076
2022-07-29T11:03:57.601Z,9.681018
2022-07-29T11:04:57.609Z,9.681081
2022-07-29T11:05:59.584Z,9.681162
2022-07-29T11:06:57.579Z,9.681141
2022-07-29T11:07:57.573Z,9.681179
2022-07-29T11:08:57.562Z,9.681101
2022-07-29T11:09:57.543Z,9.681059
2022-07-29T11:10:57.561Z,9.681105
2022-07-29T11:11:57.761Z,9.681105
2022-07-29T11:12:57.530Z,9.681245
2022-07-29T11:13:57.517Z,9.681018
2022-07-29T11:14:57.509Z,9.681034
2022-07-29T11:15:57.535Z,9.681109
2022-07-29T11:16:57.522Z,9.680973
2022-07-29T11:17:59.299Z,9.680956
2022-07-29T11:18:58.503Z,9.680818
2022-07-29T11:19:57.494Z,9.680614
2022-07-29T11:20:57.465Z,9.680690
2022-07-29T11:21:58.484Z,9.680992
2022-07-29T11:22:57.487Z,9.680835
2022-07-29T11:23:57.454Z,9.680993
2022-07-29T11:24:57.446Z,9.680890
2022-07-29T11:25:57.437Z,9.681006
2022-07-29T11:27:00.499Z,9.681138
2022-07-29T11:27:57.433Z,9.681009
2022-07-29T11:28:57.455Z,9.681023
2022-07-29T11:29:57.410Z,9.680885
2022-07-29T11:30:57.782Z,9.680790
2022-07-29T11:31:57.604Z,9.680644
2022-07-29T11:32:57.424Z,9.681158
2022-07-29T11:33:58.015Z,9.681371
2022-07-29T11:34:57.375Z,9.681375
2022-07-29T11:36:00.807Z,9.681194
2022-07-29T11:36:57.617Z,9.681085
2022-07-29T11:37:57.773Z,9.681086
2022-07-29T11:38:57.348Z,9.681313
2022-07-29T11:40:01.491Z,9.681333
2022-07-29T11:40:57.332Z,9.681273
2022-07-29T11:42:01.768Z,9.681064
2022-07-29T11:42:58.405Z,9.680872
2022-07-29T11:43:57.313Z,9.680902